Time;durP1;ratioP1;P1;durP2;ratioP2;P2;SDS_P1;SDS_P2;PMS_P1;PMS_P2;Temp;Humidity;BMP_temperature;BMP_pressure;BME280_temperature;BME280_humidity;BME280_pressure;Samples;Min_cycle;Max_cycle;Signal;HPM_P1;HPM_P2
2023/04/24 00:01:42;;;;;;;5.10;1.98;;;;;;;10.67;66.38;98616.53;10355489;28;20042;-60
2023/04/24 00:06:49;;;;;;;9.52;2.45;;;;;;;10.80;65.91;98606.75;10353857;28;20085;-60
2023/04/24 00:11:51;;;;;;;3.67;1.50;;;;;;;10.70;65.73;98597.97;10364579;28;20126;-60
2023/04/24 00:16:52;;;;;;;5.55;1.52;;;;;;;10.79;65.70;98596.38;10352456;28;20049;-60
2023/04/24 00:21:55;;;;;;;2.72;1.50;;;;;;;10.97;65.53;98598.31;10354310;28;20528;-60
2023/04/24 00:26:56;;;;;;;3.33;1.70;;;;;;;11.06;65.28;98581.91;10352136;28;20037;-60
2023/04/24 00:31:58;;;;;;;5.25;1.40;;;;;;;11.02;65.16;98575.25;10352479;28;20056;-60
2023/04/24 00:37:00;;;;;;;3.88;1.50;;;;;;;11.04;65.19;98568.13;10352615;28;20577;-60
2023/04/24 00:42:02;;;;;;;5.25;1.60;;;;;;;10.96;65.23;98577.53;10352748;28;20042;-60
2023/04/24 00:47:04;;;;;;;3.90;1.70;;;;;;;11.00;65.53;98576.31;10391649;28;20041;-59
2023/04/24 00:52:08;;;;;;;2.60;1.80;;;;;;;10.99;65.66;98577.28;10373140;28;20050;-60
2023/04/24 00:57:10;;;;;;;5.30;2.00;;;;;;;11.00;65.64;98577.16;10390370;28;20053;-60
2023/04/24 01:02:12;;;;;;;4.72;1.85;;;;;;;11.06;65.59;98579.28;10393065;28;20042;-60
2023/04/24 01:07:14;;;;;;;4.45;2.13;;;;;;;11.06;65.73;98570.59;10376600;28;20049;-60
2023/04/24 01:12:16;;;;;;;5.93;2.05;;;;;;;11.04;65.64;98573.38;10395270;28;20055;-60
2023/04/24 01:17:19;;;;;;;3.80;1.83;;;;;;;11.09;65.84;98575.59;10387689;28;20053;-60
2023/04/24 01:22:21;;;;;;;5.68;2.00;;;;;;;11.16;65.61;98574.13;10389498;28;20128;-60
2023/04/24 01:27:23;;;;;;;4.65;1.92;;;;;;;11.13;65.64;98580.44;10368809;28;20045;-60
2023/04/24 01:32:25;;;;;;;4.68;1.80;;;;;;;11.10;65.76;98585.09;10386810;28;20057;-60
2023/04/24 01:37:27;;;;;;;7.15;1.65;;;;;;;11.12;65.65;98598.88;10371480;28;20468;-60
2023/04/24 01:42:30;;;;;;;2.58;1.42;;;;;;;11.10;65.20;98592.94;10373590;28;20040;-60
2023/04/24 01:47:33;;;;;;;2.42;1.35;;;;;;;11.05;65.63;98600.38;10385348;28;20086;-60
2023/04/24 01:52:35;;;;;;;3.45;1.52;;;;;;;11.11;65.09;98598.03;10390006;28;20487;-60
2023/04/24 01:57:38;;;;;;;2.28;1.60;;;;;;;11.08;65.04;98598.31;10367623;28;20149;-60
2023/04/24 02:02:41;;;;;;;3.50;1.40;;;;;;;11.02;64.73;98608.41;10389598;28;20053;-60
2023/04/24 02:07:45;;;;;;;2.13;1.20;;;;;;;10.87;64.58;98607.88;10360456;28;20045;-60
2023/04/24 02:12:47;;;;;;;2.45;1.40;;;;;;;10.90;64.50;98599.78;10378639;28;20048;-60
2023/04/24 02:17:49;;;;;;;2.05;1.33;;;;;;;10.83;64.72;98601.25;10375855;28;20041;-60
2023/04/24 02:22:51;;;;;;;3.53;1.33;;;;;;;10.81;64.83;98600.53;10394509;28;20474;-60
2023/04/24 02:27:53;;;;;;;4.32;1.20;;;;;;;10.74;65.03;98603.78;10392824;28;20401;-60
2023/04/24 02:32:55;;;;;;;3.00;1.33;;;;;;;10.68;64.52;98605.13;10379745;28;20147;-59
2023/04/24 02:37:57;;;;;;;3.33;1.38;;;;;;;10.60;64.39;98612.75;10388685;28;20488;-61
2023/04/24 02:42:58;;;;;;;2.83;1.30;;;;;;;10.39;63.62;98604.00;10394715;28;20042;-61
2023/04/24 02:48:00;;;;;;;3.78;1.30;;;;;;;10.43;63.50;98605.44;10401132;28;20050;-60
2023/04/24 02:53:02;;;;;;;3.13;1.48;;;;;;;10.21;63.13;98608.94;10404029;28;20053;-61
2023/04/24 02:58:04;;;;;;;1.40;1.30;;;;;;;10.27;63.06;98618.06;10384277;28;20137;-61
2023/04/24 03:03:06;;;;;;;2.90;1.35;;;;;;;10.28;62.70;98622.31;10402034;28;20509;-60
2023/04/24 03:08:08;;;;;;;2.83;1.45;;;;;;;10.24;62.31;98613.88;10397444;28;20045;-61
2023/04/24 03:13:10;;;;;;;3.25;1.60;;;;;;;10.19;62.33;98617.81;10395735;28;20037;-61
2023/04/24 03:18:12;;;;;;;2.30;1.40;;;;;;;10.01;62.08;98632.34;10379543;28;20068;-60
2023/04/24 03:23:15;;;;;;;5.43;1.63;;;;;;;10.01;61.40;98643.59;10392396;28;20115;-61
2023/04/24 03:28:17;;;;;;;2.38;1.60;;;;;;;9.85;61.13;98650.94;10374339;28;20143;-60
2023/04/24 03:33:24;;;;;;;4.75;1.70;;;;;;;9.57;61.67;98662.66;10390077;28;20076;-60
2023/04/24 03:38:35;;;;;;;3.33;1.48;;;;;;;9.38;61.28;98662.34;10375268;28;20050;-60
2023/04/24 03:43:55;;;;;;;2.80;1.50;;;;;;;9.22;61.26;98671.47;10432676;28;20056;-60
2023/04/24 03:48:57;;;;;;;4.70;2.28;;;;;;;9.24;60.95;98670.38;10396985;28;20058;-61
2023/04/24 03:54:03;;;;;;;3.42;2.00;;;;;;;9.11;60.70;98685.28;10387083;28;20045;-60
2023/04/24 03:59:09;;;;;;;3.25;1.80;;;;;;;8.98;60.59;98688.88;10377117;28;20448;-61
2023/04/24 04:04:11;;;;;;;3.65;1.63;;;;;;;8.92;60.39;98699.75;10377442;28;20068;-61
2023/04/24 04:09:14;;;;;;;5.18;2.22;;;;;;;8.98;60.53;98700.16;10375313;28;20115;-60
2023/04/24 04:14:16;;;;;;;3.70;1.90;;;;;;;8.93;60.27;98704.03;10394281;28;20422;-61
2023/04/24 04:19:21;;;;;;;3.53;2.00;;;;;;;8.93;60.10;98714.47;10408502;28;20581;-61
2023/04/24 04:24:23;;;;;;;3.22;2.00;;;;;;;8.95;60.01;98716.03;10394473;28;20172;-61
2023/04/24 04:29:26;;;;;;;5.50;2.00;;;;;;;9.01;60.09;98726.03;10377216;28;20045;-61
2023/04/24 04:34:29;;;;;;;5.78;2.08;;;;;;;8.97;59.73;98734.16;10374576;28;20048;-60
2023/04/24 04:39:31;;;;;;;3.22;1.92;;;;;;;8.85;59.56;98726.28;10372102;28;20160;-61
2023/04/24 04:44:40;;;;;;;3.33;1.80;;;;;;;8.69;59.87;98732.69;10386318;28;20065;-61
2023/04/24 04:49:46;;;;;;;7.18;1.90;;;;;;;8.55;60.13;98733.66;10375042;28;20052;-61
2023/04/24 04:54:54;;;;;;;4.93;1.95;;;;;;;8.51;60.21;98736.59;10372697;28;20317;-61
2023/04/24 05:00:00;;;;;;;6.57;2.20;;;;;;;8.63;60.06;98731.34;10385049;28;20106;-61
2023/04/24 05:05:16;;;;;;;2.92;1.80;;;;;;;8.86;59.66;98747.97;10377331;28;20044;-61
2023/04/24 05:10:19;;;;;;;5.18;2.15;;;;;;;8.95;58.91;98757.75;10358180;28;20037;-61
2023/04/24 05:15:21;;;;;;;5.95;2.30;;;;;;;8.89;58.68;98762.56;10373818;28;20197;-61
2023/04/24 05:20:23;;;;;;;4.68;2.47;;;;;;;8.80;58.79;98764.06;10372152;28;20076;-61
2023/04/24 05:25:25;;;;;;;5.07;2.90;;;;;;;8.70;58.48;98768.25;10373025;28;20579;-60
2023/04/24 05:30:31;;;;;;;3.90;2.80;;;;;;;8.83;57.92;98777.69;10386095;28;20052;-61
2023/04/24 05:35:34;;;;;;;7.05;3.05;;;;;;;8.79;57.53;98778.03;10375264;28;20068;-61
2023/04/24 05:40:36;;;;;;;6.95;2.97;;;;;;;8.95;57.29;98776.00;10372423;28;20197;-61
2023/04/24 05:45:38;;;;;;;5.22;3.40;;;;;;;8.80;57.19;98783.13;10391509;28;20044;-60
2023/04/24 05:50:40;;;;;;;7.13;3.30;;;;;;;9.03;56.84;98794.56;10382370;28;20392;-61
2023/04/24 05:55:43;;;;;;;6.32;3.50;;;;;;;8.96;56.63;98790.69;10390516;28;20045;-61
2023/04/24 06:00:46;;;;;;;5.47;3.50;;;;;;;9.12;56.12;98801.69;10374230;28;20057;-61
2023/04/24 06:05:51;;;;;;;6.35;3.80;;;;;;;9.27;55.94;98798.00;10383885;28;20057;-61
2023/04/24 06:10:53;;;;;;;6.68;3.75;;;;;;;9.57;55.43;98807.97;10376297;28;20199;-61
2023/04/24 06:15:56;;;;;;;5.80;4.38;;;;;;;10.09;54.31;98810.19;10375767;28;20056;-61
2023/04/24 06:21:08;;;;;;;8.20;4.10;;;;;;;10.45;53.34;98803.00;10370270;28;20517;-61
2023/04/24 06:26:10;;;;;;;6.85;4.22;;;;;;;10.28;53.34;98806.06;10388440;28;20171;-61
2023/04/24 06:31:12;;;;;;;7.57;4.57;;;;;;;10.47;53.24;98813.34;10384077;28;20464;-61
2023/04/24 06:36:15;;;;;;;10.95;4.75;;;;;;;10.67;52.48;98810.00;10384312;28;20757;-62
2023/04/24 06:41:17;;;;;;;6.22;4.53;;;;;;;11.08;52.02;98814.63;10389375;28;20405;-61
2023/04/24 06:46:19;;;;;;;7.63;4.55;;;;;;;10.88;51.78;98800.50;10386118;28;20523;-61
2023/04/24 06:51:25;;;;;;;6.90;4.32;;;;;;;10.75;52.13;98798.94;10386041;28;20107;-61
2023/04/24 06:56:28;;;;;;;6.07;4.43;;;;;;;10.80;52.13;98791.59;10383469;28;20635;-61
2023/04/24 07:01:31;;;;;;;7.07;4.18;;;;;;;10.89;51.63;98802.16;10388189;28;20465;-61
2023/04/24 07:06:33;;;;;;;7.45;4.22;;;;;;;11.01;51.57;98805.59;10385338;28;20038;-61
2023/04/24 07:11:36;;;;;;;10.48;4.60;;;;;;;11.01;51.33;98803.78;10384016;28;20052;-61
2023/04/24 07:16:38;;;;;;;8.18;4.20;;;;;;;11.46;50.42;98785.41;10385154;28;20033;-61
2023/04/24 07:21:40;;;;;;;8.15;4.22;;;;;;;11.85;49.63;98787.34;10373009;28;20104;-61
2023/04/24 07:26:43;;;;;;;5.45;3.47;;;;;;;11.94;49.30;98786.59;10385854;28;20446;-61
2023/04/24 07:31:45;;;;;;;5.90;3.55;;;;;;;11.98;48.94;98782.75;10388312;28;20213;-61
2023/04/24 07:36:47;;;;;;;5.25;3.33;;;;;;;12.60;47.32;98782.72;10391426;28;20048;-62
2023/04/24 07:41:48;;;;;;;7.05;3.88;;;;;;;13.05;47.41;98783.13;10395318;28;20682;-61
2023/04/24 07:46:50;;;;;;;6.82;3.53;;;;;;;12.90;47.14;98786.13;10391872;28;20136;-62
2023/04/24 07:51:52;;;;;;;5.60;3.20;;;;;;;12.07;47.29;98793.28;10391140;28;20057;-62
2023/04/24 07:56:54;;;;;;;5.03;3.42;;;;;;;11.70;48.54;98799.09;10390952;28;20420;-61
2023/04/24 08:01:56;;;;;;;6.43;3.15;;;;;;;11.36;48.67;98793.16;10393568;28;20053;-62
2023/04/24 08:06:58;;;;;;;4.95;2.65;;;;;;;11.41;48.99;98798.84;10391509;28;20033;-61
2023/04/24 08:11:59;;;;;;;4.40;2.80;;;;;;;11.36;48.95;98808.06;10390389;28;20052;-62
2023/04/24 08:17:02;;;;;;;4.57;2.90;;;;;;;11.62;48.78;98817.25;10388388;28;20061;-60
2023/04/24 08:22:04;;;;;;;4.03;2.50;;;;;;;11.68;48.64;98827.22;10370319;28;20071;-61
2023/04/24 08:27:06;;;;;;;4.00;2.30;;;;;;;11.60;48.51;98830.44;10389025;28;20119;-60
2023/04/24 08:32:07;;;;;;;3.72;2.20;;;;;;;11.99;48.58;98844.66;10390586;28;20071;-61
2023/04/24 08:37:09;;;;;;;6.43;2.58;;;;;;;12.05;48.21;98844.16;10388124;28;20046;-61
2023/04/24 08:42:13;;;;;;;3.15;1.90;;;;;;;11.86;48.13;98851.91;10392234;28;20497;-60
2023/04/24 08:47:15;;;;;;;3.63;1.92;;;;;;;12.22;47.89;98864.56;10392570;28;20051;-61
2023/04/24 08:52:18;;;;;;;2.83;1.70;;;;;;;11.97;47.91;98867.56;10401466;28;20091;-60
2023/04/24 08:57:21;;;;;;;3.38;1.80;;;;;;;11.97;47.97;98862.31;10391086;28;20123;-61
2023/04/24 09:02:23;;;;;;;5.60;2.00;;;;;;;11.64;49.04;98871.13;10389327;28;20201;-60
2023/04/24 09:07:27;;;;;;;3.47;1.80;;;;;;;11.64;49.12;98884.22;10384165;28;20445;-60
2023/04/24 09:12:30;;;;;;;3.40;1.70;;;;;;;12.24;48.44;98873.16;10387325;28;20055;-61
2023/04/24 09:17:34;;;;;;;3.50;1.70;;;;;;;13.13;47.36;98877.78;10392343;28;20042;-61
2023/04/24 09:22:37;;;;;;;2.72;1.80;;;;;;;13.55;48.61;98882.78;10391830;28;20053;-61
2023/04/24 09:27:45;;;;;;;3.88;1.80;;;;;;;13.12;50.02;98894.50;10386733;28;20053;-63
2023/04/24 09:32:47;;;;;;;2.90;1.70;;;;;;;12.40;51.51;98904.19;10394096;28;20060;-62
2023/04/24 09:37:49;;;;;;;2.72;1.30;;;;;;;12.76;50.86;98906.38;10381096;28;20033;-62
2023/04/24 09:42:53;;;;;;;1.67;1.40;;;;;;;12.56;51.30;98909.81;10387792;28;20053;-62
2023/04/24 09:47:55;;;;;;;3.97;1.50;;;;;;;12.75;50.35;98902.91;10385049;28;20077;-63
2023/04/24 09:53:01;;;;;;;2.50;1.50;;;;;;;12.43;51.16;98920.50;10385477;28;20049;-62
2023/04/24 09:58:05;;;;;;;2.60;1.42;;;;;;;12.19;51.05;98929.53;10386358;28;20064;-62
2023/04/24 10:03:07;;;;;;;2.58;1.38;;;;;;;11.99;51.51;98952.09;10388172;28;20115;-62
2023/04/24 10:08:11;;;;;;;3.05;1.60;;;;;;;12.03;51.82;98953.53;10382684;28;20220;-62
2023/04/24 10:13:17;;;;;;;1.85;1.30;;;;;;;12.17;51.81;98960.28;10368153;28;20113;-63
2023/04/24 10:18:21;;;;;;;3.85;1.40;;;;;;;12.05;52.30;98969.94;10385286;28;20247;-62
2023/04/24 10:23:25;;;;;;;2.83;1.67;;;;;;;11.79;53.03;98985.16;10389010;28;20250;-63
2023/04/24 10:28:29;;;;;;;3.55;1.70;;;;;;;11.81;54.13;98995.50;10380881;28;20587;-62
2023/04/24 10:33:32;;;;;;;3.63;1.90;;;;;;;12.34;53.87;98994.69;10366690;28;20114;-62
2023/04/24 10:38:35;;;;;;;4.68;2.83;;;;;;;12.94;52.92;98997.44;10382279;28;21587;-62
2023/04/24 10:43:40;;;;;;;4.05;1.98;;;;;;;12.80;53.18;99000.41;10383560;28;20616;-62
2023/04/24 10:48:44;;;;;;;5.45;1.95;;;;;;;12.56;55.07;99001.59;10382160;28;20061;-62
2023/04/24 10:53:49;;;;;;;5.95;2.10;;;;;;;12.44;55.23;99016.56;10383721;28;20119;-62
2023/04/24 10:58:53;;;;;;;2.65;1.80;;;;;;;13.24;54.86;99022.09;10385420;28;20041;-62
2023/04/24 11:03:57;;;;;;;3.55;2.10;;;;;;;13.71;53.98;99022.34;10383733;28;20051;-62
2023/04/24 11:09:06;;;;;;;3.50;1.75;;;;;;;13.91;52.74;99028.47;10374468;28;20054;-62
2023/04/24 11:14:10;;;;;;;3.28;2.20;;;;;;;13.48;53.07;99036.63;10389009;28;20544;-62
2023/04/24 11:19:18;;;;;;;4.03;2.20;;;;;;;12.98;53.57;99042.66;10393881;28;20057;-63
2023/04/24 11:24:35;;;;;;;4.30;2.78;;;;;;;12.42;54.42;99059.59;10391675;28;20064;-62
2023/04/24 11:29:46;;;;;;;4.75;2.67;;;;;;;12.54;53.82;99064.69;10392372;28;20130;-62
2023/04/24 11:34:49;;;;;;;5.47;3.17;;;;;;;12.89;54.10;99060.00;10389293;28;20717;-62
2023/04/24 11:39:57;;;;;;;5.95;3.35;;;;;;;13.32;53.50;99064.28;10393830;28;20045;-62
2023/04/24 11:45:00;;;;;;;4.88;3.33;;;;;;;13.21;53.55;99078.31;10390689;28;20042;-62
2023/04/24 11:50:05;;;;;;;5.60;3.22;;;;;;;12.66;53.40;99097.78;10371622;28;20343;-62
2023/04/24 11:55:16;;;;;;;9.20;3.83;;;;;;;11.93;55.67;99115.91;10386702;28;20041;-63
2023/04/24 12:00:23;;;;;;;6.25;3.55;;;;;;;11.69;56.33;99137.91;10390856;28;20033;-62
2023/04/24 12:05:30;;;;;;;4.53;2.55;;;;;;;11.51;55.97;99140.16;10384028;28;20417;-62
2023/04/24 12:10:34;;;;;;;4.22;2.58;;;;;;;11.34;57.35;99152.88;10389608;28;20417;-62
2023/04/24 12:15:39;;;;;;;5.07;2.40;;;;;;;11.16;58.14;99149.81;10385826;28;20057;-62
2023/04/24 12:20:41;;;;;;;5.47;3.28;;;;;;;11.27;58.14;99147.25;10388514;28;20308;-62
2023/04/24 12:25:43;;;;;;;7.40;3.20;;;;;;;11.43;58.14;99145.16;10386497;28;20402;-62
2023/04/24 12:30:49;;;;;;;4.93;2.97;;;;;;;11.62;57.13;99127.06;10389979;28;20033;-62
2023/04/24 12:35:55;;;;;;;4.75;3.05;;;;;;;12.36;56.47;99133.50;10385495;28;20169;-62
2023/04/24 12:41:05;;;;;;;4.85;3.05;;;;;;;12.93;55.52;99127.03;10386054;28;20499;-62
2023/04/24 12:46:07;;;;;;;6.00;3.70;;;;;;;12.98;55.94;99132.72;10386102;28;20044;-63
2023/04/24 12:51:08;;;;;;;6.15;3.72;;;;;;;13.20;54.97;99131.78;10375652;28;20053;-62
2023/04/24 12:56:10;;;;;;;7.93;3.90;;;;;;;13.23;53.68;99157.78;10364609;28;20041;-62
2023/04/24 13:01:12;;;;;;;9.38;3.97;;;;;;;12.98;53.73;99141.56;10388245;28;20135;-62
2023/04/24 13:06:14;;;;;;;8.52;4.45;;;;;;;13.13;52.92;99142.94;10386917;28;20456;-62
2023/04/24 13:11:16;;;;;;;7.47;4.38;;;;;;;13.16;52.55;99166.31;10385731;28;20049;-62
2023/04/24 13:16:18;;;;;;;7.93;4.45;;;;;;;13.09;52.87;99154.66;10381575;28;20053;-62
2023/04/24 13:21:20;;;;;;;9.00;4.05;;;;;;;12.96;54.24;99150.38;10390433;28;20355;-62
2023/04/24 13:26:25;;;;;;;5.32;3.63;;;;;;;13.24;53.72;99142.88;10391784;28;20041;-62
2023/04/24 13:31:27;;;;;;;8.98;4.05;;;;;;;13.23;53.44;99136.78;10393226;28;20885;-62
2023/04/24 13:36:30;;;;;;;6.30;3.80;;;;;;;13.25;52.52;99134.06;10397862;28;20037;-62
2023/04/24 13:41:36;;;;;;;8.35;4.20;;;;;;;13.01;51.52;99133.41;10397732;28;20041;-62
2023/04/24 13:46:37;;;;;;;6.38;3.90;;;;;;;12.73;51.78;99135.69;10390462;28;20533;-62
2023/04/24 13:51:42;;;;;;;8.20;4.35;;;;;;;12.55;51.59;99145.06;10376203;28;20052;-62
2023/04/24 13:56:44;;;;;;;8.32;3.88;;;;;;;12.39;51.86;99141.16;10385276;28;20401;-62
2023/04/24 14:01:47;;;;;;;8.23;4.03;;;;;;;12.33;51.71;99145.09;10392158;28;20409;-62
2023/04/24 14:06:50;;;;;;;8.98;4.25;;;;;;;12.44;51.40;99141.59;10363678;28;20059;-61
2023/04/24 14:11:52;;;;;;;8.70;4.13;;;;;;;13.12;50.70;99115.00;10369615;28;20045;-63
2023/04/24 14:16:53;;;;;;;8.05;4.20;;;;;;;13.75;50.10;99114.88;10366242;28;20057;-63
2023/04/24 14:21:58;;;;;;;8.65;3.97;;;;;;;14.20;48.79;99120.59;10389371;28;20289;-63
2023/04/24 14:27:00;;;;;;;6.05;3.70;;;;;;;14.25;47.74;99116.56;10388326;28;21031;-64
2023/04/24 14:32:02;;;;;;;7.95;3.92;;;;;;;13.92;47.15;99102.91;10368232;28;20469;-63
2023/04/24 14:37:03;;;;;;;9.30;3.72;;;;;;;14.00;46.98;99116.22;10405924;28;20042;-64
2023/04/24 14:42:05;;;;;;;7.60;3.60;;;;;;;14.05;46.30;99116.66;10390888;28;20041;-63
2023/04/24 14:47:07;;;;;;;7.55;3.97;;;;;;;13.93;46.03;99131.69;10395852;28;20489;-62
2023/04/24 14:52:10;;;;;;;7.03;3.67;;;;;;;13.48;46.12;99136.44;10399228;28;20050;-62
2023/04/24 14:57:12;;;;;;;7.60;3.50;;;;;;;13.23;47.04;99130.72;10396708;28;20401;-63
2023/04/24 15:02:17;;;;;;;7.20;3.85;;;;;;;13.00;47.78;99137.88;10400859;28;20519;-62
2023/04/24 15:07:22;;;;;;;7.70;3.60;;;;;;;12.95;47.86;99140.84;10396912;28;20132;-63
2023/04/24 15:12:24;;;;;;;7.07;3.75;;;;;;;12.84;47.25;99146.13;10401266;28;20053;-62
2023/04/24 15:17:26;;;;;;;7.07;3.67;;;;;;;12.82;47.63;99153.31;10392358;28;20127;-62
2023/04/24 15:22:28;;;;;;;8.80;3.67;;;;;;;13.16;47.58;99150.56;10397975;28;20493;-63
2023/04/24 15:27:43;;;;;;;8.93;3.90;;;;;;;13.32;47.05;99143.06;10411223;28;20044;-62
2023/04/24 15:32:45;;;;;;;6.47;3.70;;;;;;;13.37;46.86;99140.91;10405688;28;20153;-62
2023/04/24 15:37:47;;;;;;;8.60;3.67;;;;;;;13.32;47.34;99150.94;10373381;28;20045;-62
2023/04/24 15:42:49;;;;;;;9.75;4.18;;;;;;;13.18;48.20;99148.63;10403086;28;20671;-62
2023/04/24 15:47:51;;;;;;;5.55;3.58;;;;;;;12.89;48.68;99148.41;10392684;28;20327;-62
2023/04/24 15:52:53;;;;;;;8.98;3.90;;;;;;;12.66;49.11;99173.06;10371808;28;20094;-62
2023/04/24 15:57:55;;;;;;;9.00;4.20;;;;;;;12.31;51.86;99188.97;10402035;28;20052;-62
2023/04/24 16:02:57;;;;;;;12.18;5.75;;;;;;;11.62;54.37;99194.34;10390200;28;20152;-62
2023/04/24 16:07:59;;;;;;;16.75;10.25;;;;;;;11.65;56.09;99184.47;10407345;28;20046;-62
2023/04/24 16:13:02;;;;;;;13.88;7.47;;;;;;;12.07;55.17;99185.56;10374758;28;20041;-62
2023/04/24 16:18:05;;;;;;;12.32;6.38;;;;;;;12.44;55.73;99168.66;10405226;28;20045;-62
2023/04/24 16:23:06;;;;;;;12.23;5.70;;;;;;;12.62;55.77;99176.88;10398990;28;20053;-62
2023/04/24 16:28:08;;;;;;;7.85;4.90;;;;;;;12.65;54.38;99174.84;10406526;28;20168;-62
2023/04/24 16:33:10;;;;;;;10.40;5.30;;;;;;;12.67;55.78;99180.78;10401708;28;20454;-62
2023/04/24 16:38:12;;;;;;;12.13;5.75;;;;;;;12.62;56.52;99177.69;10400115;28;20147;-62
2023/04/24 16:43:14;;;;;;;11.93;5.90;;;;;;;12.39;57.04;99176.09;10404719;28;20135;-62
2023/04/24 16:48:16;;;;;;;6.97;4.93;;;;;;;12.37;56.90;99178.00;10394526;28;20048;-63
2023/04/24 16:53:18;;;;;;;6.93;4.57;;;;;;;12.38;56.39;99174.41;10387786;28;20599;-62
2023/04/24 16:58:20;;;;;;;9.25;4.90;;;;;;;12.42;56.56;99160.09;10393540;28;20856;-61
2023/04/24 17:03:21;;;;;;;8.40;5.00;;;;;;;12.15;56.76;99157.81;10382001;28;20045;-61
2023/04/24 17:08:23;;;;;;;8.88;5.72;;;;;;;11.90;57.56;99154.63;10391968;28;20045;-61
2023/04/24 17:13:25;;;;;;;9.93;5.55;;;;;;;11.83;57.94;99161.25;10389983;28;20049;-61
2023/04/24 17:18:27;;;;;;;9.30;5.78;;;;;;;11.91;58.38;99164.97;10397894;28;20168;-61
2023/04/24 17:23:29;;;;;;;7.65;5.35;;;;;;;11.92;58.03;99176.28;10389585;28;20053;-61
2023/04/24 17:28:32;;;;;;;8.98;5.32;;;;;;;11.80;57.79;99172.84;10398118;28;20045;-61
2023/04/24 17:33:34;;;;;;;8.88;5.38;;;;;;;11.83;58.14;99171.75;10406042;28;20127;-61
2023/04/24 17:38:36;;;;;;;9.25;6.00;;;;;;;11.86;58.57;99176.75;10371832;28;20048;-61
2023/04/24 17:43:38;;;;;;;10.98;5.72;;;;;;;11.66;58.77;99185.31;10383550;28;20072;-62
2023/04/24 17:48:40;;;;;;;8.82;6.28;;;;;;;11.69;59.03;99177.22;10373964;28;20435;-61
2023/04/24 17:53:42;;;;;;;10.20;6.63;;;;;;;11.64;58.83;99192.44;10389108;28;20497;-61
2023/04/24 17:58:44;;;;;;;12.52;7.32;;;;;;;11.53;60.27;99195.03;10385124;28;20125;-61
2023/04/24 18:03:46;;;;;;;11.30;7.03;;;;;;;11.35;61.00;99191.19;10372299;28;20095;-61
2023/04/24 18:08:48;;;;;;;8.38;6.40;;;;;;;11.17;61.03;99190.75;10382089;28;20041;-61
2023/04/24 18:13:50;;;;;;;9.43;6.68;;;;;;;10.96;60.56;99197.53;10371845;28;20037;-62
2023/04/24 18:18:52;;;;;;;9.90;7.30;;;;;;;10.86;60.74;99210.44;10386975;28;20041;-62
2023/04/24 18:23:54;;;;;;;10.10;6.70;;;;;;;10.75;60.69;99213.00;10390772;28;20052;-62
2023/04/24 18:28:56;;;;;;;9.25;7.40;;;;;;;10.70;61.17;99222.13;10386267;28;20124;-62
2023/04/24 18:33:58;;;;;;;10.88;6.72;;;;;;;10.61;60.75;99226.22;10397403;28;20144;-61
2023/04/24 18:38:59;;;;;;;9.38;7.35;;;;;;;10.62;60.61;99227.06;10390498;28;20045;-61
2023/04/24 18:44:01;;;;;;;10.20;7.63;;;;;;;10.54;61.58;99243.31;10385977;28;20425;-61
2023/04/24 18:49:03;;;;;;;10.32;7.70;;;;;;;10.60;61.33;99253.31;10389992;28;20050;-61
2023/04/24 18:54:05;;;;;;;11.10;8.20;;;;;;;10.60;61.43;99250.72;10387932;28;20042;-60
2023/04/24 18:59:07;;;;;;;14.30;9.32;;;;;;;10.76;61.68;99250.44;10387861;28;20206;-60
2023/04/24 19:04:09;;;;;;;13.15;7.90;;;;;;;10.81;61.13;99251.78;10387104;28;20045;-60
2023/04/24 19:09:11;;;;;;;10.27;8.27;;;;;;;10.78;61.70;99252.03;10392836;28;20401;-60
2023/04/24 19:14:15;;;;;;;12.15;8.73;;;;;;;10.79;62.08;99255.44;10389220;28;20042;-60
2023/04/24 19:19:16;;;;;;;11.50;8.95;;;;;;;10.59;62.48;99269.09;10386138;28;20753;-60
2023/04/24 19:24:20;;;;;;;13.75;8.52;;;;;;;10.52;62.88;99271.34;10385637;28;20045;-61
2023/04/24 19:29:21;;;;;;;14.02;9.07;;;;;;;10.47;63.00;99281.25;10390740;28;20386;-61
2023/04/24 19:34:24;;;;;;;12.43;8.18;;;;;;;10.47;62.51;99283.88;10389464;28;20068;-61
2023/04/24 19:39:26;;;;;;;12.43;8.63;;;;;;;10.46;62.36;99284.81;10391441;28;20037;-61
2023/04/24 19:44:27;;;;;;;13.35;8.07;;;;;;;10.42;62.75;99278.13;10389120;28;20059;-61
2023/04/24 19:49:29;;;;;;;11.30;6.65;;;;;;;10.38;62.51;99280.09;10387881;28;20589;-61
2023/04/24 19:54:32;;;;;;;11.70;7.22;;;;;;;10.27;62.69;99268.72;10387590;28;20045;-61
2023/04/24 19:59:33;;;;;;;11.02;7.90;;;;;;;10.09;63.03;99277.84;10389218;28;20033;-61
2023/04/24 20:04:35;;;;;;;12.20;6.75;;;;;;;9.87;63.34;99280.22;10386929;28;20320;-61
2023/04/24 20:09:37;;;;;;;9.10;6.20;;;;;;;9.80;63.41;99289.41;10386179;28;20059;-61
2023/04/24 20:14:39;;;;;;;8.75;6.22;;;;;;;9.83;62.87;99281.38;10394962;28;20410;-60
2023/04/24 20:19:41;;;;;;;8.27;5.90;;;;;;;9.78;62.79;99276.44;10388543;28;20429;-61
2023/04/24 20:24:44;;;;;;;7.57;5.28;;;;;;;9.70;62.82;99280.50;10392533;28;20041;-60
2023/04/24 20:29:46;;;;;;;8.15;5.22;;;;;;;9.59;63.01;99276.78;10388407;28;20585;-60
2023/04/24 20:34:48;;;;;;;10.25;5.38;;;;;;;9.50;63.26;99281.78;10392674;28;20469;-59
2023/04/24 20:39:50;;;;;;;7.78;5.68;;;;;;;9.55;63.16;99285.75;10386939;28;20041;-60
2023/04/24 20:44:52;;;;;;;8.15;5.50;;;;;;;9.57;63.26;99281.28;10392562;28;20128;-60
2023/04/24 20:49:54;;;;;;;8.68;5.78;;;;;;;9.48;63.72;99283.66;10389298;28;20296;-60
2023/04/24 20:54:56;;;;;;;7.95;5.78;;;;;;;9.51;63.77;99273.00;10403693;28;20323;-60
2023/04/24 20:59:57;;;;;;;8.73;6.00;;;;;;;9.59;63.63;99278.56;10391308;28;20397;-60
2023/04/24 21:04:59;;;;;;;7.80;5.68;;;;;;;9.59;63.60;99273.34;10386334;28;20826;-60
2023/04/24 21:10:01;;;;;;;6.78;5.68;;;;;;;9.52;63.78;99280.72;10389896;28;20068;-60
2023/04/24 21:15:04;;;;;;;10.68;6.55;;;;;;;9.50;64.11;99298.28;10380827;28;20046;-60
2023/04/24 21:20:07;;;;;;;10.45;7.10;;;;;;;9.57;64.28;99289.13;10388138;28;20045;-60
2023/04/24 21:25:09;;;;;;;10.15;7.43;;;;;;;9.37;64.59;99297.41;10388067;28;20459;-60
2023/04/24 21:30:12;;;;;;;9.85;7.50;;;;;;;9.21;65.15;99291.50;10383892;28;20156;-60
2023/04/24 21:35:13;;;;;;;10.88;7.80;;;;;;;9.35;65.15;99282.78;10391634;28;20139;-60
2023/04/24 21:40:15;;;;;;;10.63;8.35;;;;;;;9.36;65.33;99280.06;10387818;28;20045;-60
2023/04/24 21:45:17;;;;;;;12.05;7.90;;;;;;;9.31;65.76;99284.75;10385500;28;20041;-60
2023/04/24 21:50:19;;;;;;;13.15;8.85;;;;;;;9.26;65.75;99276.38;10384365;28;20140;-60
2023/04/24 21:55:21;;;;;;;13.02;8.75;;;;;;;9.24;66.03;99269.63;10389339;28;20053;-60
2023/04/24 22:00:23;;;;;;;14.52;8.68;;;;;;;9.30;65.94;99270.03;10387408;28;20154;-60
2023/04/24 22:05:26;;;;;;;12.60;8.50;;;;;;;9.36;65.77;99264.41;10387025;28;20125;-60
2023/04/24 22:10:28;;;;;;;8.23;7.32;;;;;;;9.44;65.50;99266.53;10388089;28;20053;-59
2023/04/24 22:15:30;;;;;;;11.00;7.70;;;;;;;9.43;65.30;99267.47;10389613;28;20080;-60
2023/04/24 22:20:32;;;;;;;11.10;8.00;;;;;;;9.41;65.24;99269.34;10385803;28;20681;-60
2023/04/24 22:25:34;;;;;;;14.40;8.30;;;;;;;9.26;65.81;99268.56;10387968;28;20038;-60
2023/04/24 22:30:37;;;;;;;10.65;8.43;;;;;;;9.17;66.07;99265.72;10394793;28;20504;-60
2023/04/24 22:35:38;;;;;;;12.00;8.07;;;;;;;8.96;66.18;99275.75;10384968;28;20046;-60
2023/04/24 22:40:41;;;;;;;9.88;8.25;;;;;;;8.75;66.96;99283.13;10369220;28;20048;-60
2023/04/24 22:45:43;;;;;;;10.93;8.40;;;;;;;8.76;66.99;99277.00;10365924;28;20046;-60
2023/04/24 22:50:44;;;;;;;9.57;7.97;;;;;;;8.80;66.97;99270.66;10382969;28;20748;-60
2023/04/24 22:55:46;;;;;;;11.73;8.32;;;;;;;8.88;66.69;99262.34;10385811;28;20045;-60
2023/04/24 23:00:48;;;;;;;12.25;8.65;;;;;;;9.00;66.05;99266.78;10386733;28;20044;-60
2023/04/24 23:05:50;;;;;;;14.02;9.95;;;;;;;9.08;65.70;99266.28;10389416;28;20041;-60
2023/04/24 23:10:52;;;;;;;12.40;8.68;;;;;;;9.21;65.06;99265.41;10390847;28;20273;-60
2023/04/24 23:15:54;;;;;;;12.45;8.48;;;;;;;9.22;64.17;99256.63;10393130;28;20063;-60
2023/04/24 23:20:56;;;;;;;15.18;9.73;;;;;;;9.15;64.51;99259.75;10392471;28;20041;-60
2023/04/24 23:25:58;;;;;;;14.82;9.80;;;;;;;8.95;64.78;99262.81;10394398;28;20293;-60
2023/04/24 23:31:00;;;;;;;13.25;8.05;;;;;;;8.89;64.77;99269.25;10407794;28;20848;-60